Aztec, New Mexico
Current Conditions -  °F | °C
As of 10:53 PM on Saturday 25 Oct 2014 (Local Time) from KFMN Reporting Station
Few Clouds Few Clouds  
Wind Chill: 52°   Ceiling: Unl
Heat Index: 52°   Visibility: 10mi
Dew Point: 33°   Wind: 8mph
Humidity: 49%   Direction: 20°NNE
Pressure: 30.17"   Gusts: NA
Location:  36.83°N, 107.99°W
Report Text: KFMN 260453Z AUTO 02007KT 10SM FEW090 11/01 A3017 RMK AO2 SLP184 T01110006
Loading
Personal Weather Stations






























Interactive Weather Map
Tropical Storm Tracking
New forecast layout! Learn more

10-Day Weather Forecast

Advertisements
Track Severe Weather on mobile